Time;durP1;ratioP1;P1;durP2;ratioP2;P2;SDS_P1;SDS_P2;PMS_P1;PMS_P2;Temp;Humidity;BMP_temperature;BMP_pressure;BME280_temperature;BME280_humidity;BME280_pressure;Samples;Min_cycle;Max_cycle;Signal;HPM_P1;HPM_P2
2021/07/20 00:02:26;;;;;;;11.17;9.93;;;16.20;63.70;;;;;;4996652;28;20459;-84
2021/07/20 00:04:55;;;;;;;11.57;10.37;;;16.20;63.90;;;;;;5010170;28;20516;-85
2021/07/20 00:07:23;;;;;;;14.03;11.20;;;16.20;63.80;;;;;;4996212;28;20500;-85
2021/07/20 00:09:50;;;;;;;12.97;9.50;;;16.20;63.90;;;;;;4994156;28;20477;-85
2021/07/20 00:12:17;;;;;;;10.50;9.50;;;16.20;64.30;;;;;;4994478;28;20489;-84
2021/07/20 00:14:46;;;;;;;11.83;10.27;;;16.10;64.30;;;;;;4995676;28;20888;-84
2021/07/20 00:17:23;;;;;;;13.63;10.73;;;16.00;64.70;;;;;;4995365;28;20465;-85
2021/07/20 00:19:53;;;;;;;11.20;9.90;;;15.80;65.60;;;;;;4990653;28;20475;-84
2021/07/20 00:22:20;;;;;;;15.60;10.30;;;15.60;65.50;;;;;;4990783;28;20530;-84
2021/07/20 00:24:47;;;;;;;11.47;10.37;;;15.60;66.00;;;;;;4991369;28;20528;-85
2021/07/20 00:27:14;;;;;;;12.80;9.80;;;15.50;66.80;;;;;;4985799;28;20448;-84
2021/07/20 00:29:41;;;;;;;11.97;10.77;;;15.50;66.80;;;;;;4989329;28;20462;-84
2021/07/20 00:32:09;;;;;;;11.77;10.37;;;15.40;66.30;;;;;;4999057;28;20460;-84
2021/07/20 00:34:40;;;;;;;13.27;10.90;;;15.40;66.50;;;;;;5016111;28;20454;-85
2021/07/20 00:37:07;;;;;;;11.73;10.47;;;15.30;67.50;;;;;;5013933;28;20492;-84
2021/07/20 00:39:34;;;;;;;13.37;10.30;;;15.30;67.30;;;;;;4999733;28;20504;-84
2021/07/20 00:42:02;;;;;;;13.67;9.60;;;15.20;68.30;;;;;;5011851;28;20443;-83
2021/07/20 00:44:29;;;;;;;15.00;10.73;;;15.10;68.80;;;;;;5018801;28;20455;-84
2021/07/20 00:46:56;;;;;;;10.70;9.60;;;15.10;68.40;;;;;;5019521;28;20516;-83
2021/07/20 00:49:23;;;;;;;12.20;11.00;;;15.20;68.30;;;;;;5009303;28;20570;-85
2021/07/20 00:52:00;;;;;;;11.10;10.00;;;15.10;68.70;;;;;;5011897;28;20444;-84
2021/07/20 00:54:28;;;;;;;12.37;11.00;;;15.10;70.20;;;;;;5010391;28;20446;-84
2021/07/20 00:57:05;;;;;;;14.70;10.97;;;15.00;70.30;;;;;;5003050;28;20486;-84
2021/07/20 00:59:32;;;;;;;11.80;10.47;;;15.00;71.40;;;;;;4999389;28;20500;-85
2021/07/20 01:01:59;;;;;;;15.83;10.73;;;15.00;71.70;;;;;;4997272;28;20458;-83
2021/07/20 01:04:26;;;;;;;12.93;10.40;;;15.00;71.40;;;;;;4991960;28;20534;-84
2021/07/20 01:06:57;;;;;;;15.07;11.13;;;15.00;71.90;;;;;;4989611;28;20448;-85
2021/07/20 01:09:26;;;;;;;12.03;10.80;;;15.00;73.00;;;;;;4998166;28;20467;-85
2021/07/20 01:11:54;;;;;;;12.97;11.67;;;14.90;74.00;;;;;;4997810;28;20481;-84
2021/07/20 01:14:23;;;;;;;14.30;10.30;;;14.80;74.40;;;;;;5000158;28;20544;-83
2021/07/20 01:16:51;;;;;;;15.87;11.60;;;14.70;74.90;;;;;;4995996;28;20466;-83
2021/07/20 01:19:18;;;;;;;14.57;10.50;;;14.70;75.20;;;;;;4992428;28;20453;-84
2021/07/20 01:21:47;;;;;;;11.83;10.03;;;14.60;75.80;;;;;;4998749;28;20547;-84
2021/07/20 01:24:22;;;;;;;11.30;10.10;;;14.50;76.30;;;;;;4991237;28;20456;-84
2021/07/20 01:26:50;;;;;;;13.07;10.47;;;14.40;77.10;;;;;;5004981;28;20484;-85
2021/07/20 01:29:19;;;;;;;11.47;10.27;;;14.30;77.60;;;;;;5000050;28;20461;-84
2021/07/20 01:31:51;;;;;;;13.20;9.30;;;14.30;78.60;;;;;;5000194;28;20457;-84
2021/07/20 01:34:19;;;;;;;14.00;11.17;;;14.20;79.70;;;;;;4997103;28;20481;-84
2021/07/20 01:36:48;;;;;;;12.60;10.47;;;14.20;80.20;;;;;;4990610;28;21023;-84
2021/07/20 01:39:18;;;;;;;14.47;11.60;;;14.30;80.60;;;;;;4995214;28;20530;-85
2021/07/20 01:41:47;;;;;;;18.00;11.70;;;14.20;81.00;;;;;;4996671;28;20446;-84
2021/07/20 01:44:15;;;;;;;18.53;11.60;;;14.20;81.60;;;;;;4994343;28;20913;-84
2021/07/20 01:46:43;;;;;;;12.47;10.80;;;14.00;82.40;;;;;;5005787;28;20456;-84
2021/07/20 01:49:13;;;;;;;14.87;11.40;;;14.00;82.80;;;;;;5000605;28;21058;-84
2021/07/20 01:51:41;;;;;;;12.43;11.10;;;14.00;82.90;;;;;;5001105;28;20519;-84
2021/07/20 01:54:09;;;;;;;16.47;10.57;;;14.20;82.20;;;;;;4998519;28;20505;-84
2021/07/20 01:56:39;;;;;;;15.13;10.07;;;14.20;81.80;;;;;;4998893;28;20500;-84
2021/07/20 01:59:09;;;;;;;17.07;11.87;;;14.30;80.60;;;;;;4996287;28;21042;-84
2021/07/20 02:01:44;;;;;;;13.20;10.30;;;14.40;81.10;;;;;;4999812;28;20523;-84
2021/07/20 02:09:49;;;;;;;12.67;10.40;;;14.10;81.20;;;;;;4997893;28;20449;-85
2021/07/20 02:12:19;;;;;;;12.83;9.80;;;14.30;80.60;;;;;;5004448;28;20458;-83
2021/07/20 02:14:49;;;;;;;14.50;11.13;;;14.30;80.50;;;;;;4996212;28;20501;-83
2021/07/20 02:17:18;;;;;;;10.70;9.60;;;14.20;80.50;;;;;;4992470;28;20445;-83
2021/07/20 02:19:53;;;;;;;13.70;12.03;;;14.00;81.50;;;;;;4994388;28;21033;-84
2021/07/20 02:22:22;;;;;;;12.67;10.40;;;14.00;81.50;;;;;;4997812;28;20455;-85
2021/07/20 02:24:51;;;;;;;12.53;10.10;;;14.00;81.40;;;;;;5004212;28;20508;-84
2021/07/20 02:27:22;;;;;;;12.60;11.10;;;14.10;81.50;;;;;;4992267;28;21004;-85
2021/07/20 02:29:52;;;;;;;11.50;9.97;;;14.00;82.10;;;;;;4997108;28;20795;-85
2021/07/20 02:32:22;;;;;;;12.77;9.97;;;13.90;82.60;;;;;;4999788;28;20449;-85
2021/07/20 02:34:51;;;;;;;12.03;10.37;;;13.90;82.10;;;;;;4989023;28;20452;-84
2021/07/20 02:37:21;;;;;;;11.07;9.57;;;14.00;82.10;;;;;;4995108;28;20448;-84
2021/07/20 02:39:48;;;;;;;15.30;10.17;;;14.00;82.00;;;;;;4996275;28;20887;-84
2021/07/20 02:42:18;;;;;;;14.60;10.40;;;14.00;82.00;;;;;;4994962;28;20448;-84
2021/07/20 02:44:48;;;;;;;11.20;8.90;;;13.90;82.30;;;;;;5014619;28;20506;-84
2021/07/20 02:47:16;;;;;;;12.00;10.17;;;13.90;82.00;;;;;;4995818;28;20485;-84
2021/07/20 02:49:45;;;;;;;11.40;9.93;;;13.90;81.50;;;;;;4998062;28;20460;-84
2021/07/20 02:52:15;;;;;;;13.07;9.60;;;14.00;81.10;;;;;;5010060;28;20496;-84
2021/07/20 02:54:42;;;;;;;12.07;8.93;;;14.00;81.00;;;;;;5014347;28;20460;-85
2021/07/20 02:57:09;;;;;;;12.60;9.70;;;13.90;81.00;;;;;;5009858;28;20616;-84
2021/07/20 02:59:39;;;;;;;14.30;10.00;;;13.90;81.10;;;;;;5003145;28;20544;-83
2021/07/20 03:02:08;;;;;;;11.60;9.30;;;13.90;81.50;;;;;;5004689;28;20471;-83
2021/07/20 03:04:35;;;;;;;10.60;9.50;;;13.90;81.70;;;;;;5004755;28;20463;-83
2021/07/20 03:07:06;;;;;;;14.10;10.17;;;13.80;81.60;;;;;;5020231;28;20478;-84
2021/07/20 03:09:34;;;;;;;11.10;10.10;;;13.80;82.40;;;;;;4999656;28;20426;-84
2021/07/20 03:12:06;;;;;;;12.03;10.17;;;13.80;82.10;;;;;;5003080;28;20453;-83
2021/07/20 03:14:35;;;;;;;12.93;9.97;;;13.70;81.90;;;;;;4996606;28;20518;-84
2021/07/20 03:17:03;;;;;;;15.00;10.33;;;13.70;82.00;;;;;;5001680;28;20481;-85
2021/07/20 03:19:33;;;;;;;16.60;10.40;;;13.70;81.60;;;;;;4993059;28;20456;-84
2021/07/20 03:22:05;;;;;;;12.30;9.80;;;13.80;81.10;;;;;;4996980;28;20492;-84
2021/07/20 03:24:35;;;;;;;10.10;9.17;;;13.90;80.30;;;;;;4996198;28;20450;-83
2021/07/20 03:27:05;;;;;;;11.90;10.00;;;14.10;79.60;;;;;;4994922;28;20457;-83
2021/07/20 03:29:40;;;;;;;10.40;8.87;;;14.10;78.90;;;;;;4994825;28;21035;-84
2021/07/20 03:32:08;;;;;;;10.70;9.60;;;14.00;78.70;;;;;;5000288;28;20449;-84
2021/07/20 03:34:40;;;;;;;11.03;8.80;;;14.00;78.70;;;;;;5006086;28;20453;-85
2021/07/20 03:37:08;;;;;;;14.83;9.63;;;14.10;78.70;;;;;;5002559;28;20467;-85
2021/07/20 03:39:37;;;;;;;12.20;9.80;;;14.10;78.10;;;;;;4999099;28;20461;-85
2021/07/20 03:42:04;;;;;;;10.00;9.00;;;14.10;79.20;;;;;;5015271;28;21006;-85
2021/07/20 03:44:31;;;;;;;12.13;9.10;;;14.00;79.40;;;;;;5007431;28;20508;-85
2021/07/20 03:46:59;;;;;;;16.23;9.07;;;14.10;79.00;;;;;;5012544;28;20471;-85
2021/07/20 03:49:27;;;;;;;14.07;9.47;;;14.20;79.10;;;;;;5003347;28;20452;-84
2021/07/20 03:52:01;;;;;;;13.33;9.90;;;14.30;78.80;;;;;;4998225;28;20485;-85
2021/07/20 03:54:32;;;;;;;10.97;9.03;;;14.20;78.50;;;;;;5010722;28;20460;-84
2021/07/20 03:57:00;;;;;;;11.40;9.40;;;14.20;78.60;;;;;;5015721;28;20495;-83
2021/07/20 03:59:31;;;;;;;12.13;10.27;;;14.30;78.00;;;;;;5003469;28;20449;-84
2021/07/20 04:02:01;;;;;;;11.17;9.53;;;14.30;77.20;;;;;;4998411;28;20832;-84
2021/07/20 04:04:33;;;;;;;11.27;9.07;;;14.40;77.10;;;;;;5016359;28;20477;-83
2021/07/20 04:07:02;;;;;;;10.80;9.20;;;14.40;76.50;;;;;;4999361;28;20540;-84
2021/07/20 04:09:32;;;;;;;9.93;8.27;;;14.40;76.90;;;;;;4998535;28;20461;-84
2021/07/20 04:12:01;;;;;;;10.23;8.53;;;14.50;76.20;;;;;;5000735;28;20461;-85
2021/07/20 04:14:28;;;;;;;11.17;9.83;;;14.50;76.50;;;;;;4999251;28;20483;-84
2021/07/20 04:16:56;;;;;;;11.30;8.80;;;14.50;75.80;;;;;;5012964;28;20484;-83
2021/07/20 04:19:23;;;;;;;9.57;8.47;;;14.60;75.80;;;;;;4999725;28;20455;-84
2021/07/20 04:21:50;;;;;;;13.90;9.07;;;14.70;75.80;;;;;;5001112;28;20470;-84
2021/07/20 04:24:20;;;;;;;10.57;9.23;;;15.00;74.90;;;;;;4984368;28;20469;-84
2021/07/20 04:26:49;;;;;;;13.20;8.20;;;15.10;73.80;;;;;;4998590;28;20761;-84
2021/07/20 04:29:16;;;;;;;11.10;8.10;;;15.30;73.10;;;;;;5001068;28;20446;-84
2021/07/20 04:31:44;;;;;;;13.40;8.37;;;15.60;72.30;;;;;;5000444;28;20486;-83
2021/07/20 04:34:13;;;;;;;9.17;8.07;;;15.80;70.90;;;;;;5001203;28;20455;-83
2021/07/20 04:36:42;;;;;;;13.27;8.40;;;16.10;70.10;;;;;;5000511;28;20459;-84
2021/07/20 04:39:11;;;;;;;16.70;8.77;;;16.10;69.70;;;;;;4999645;28;20576;-84
2021/07/20 04:41:42;;;;;;;9.17;8.27;;;16.40;69.30;;;;;;4998844;28;20475;-84
2021/07/20 04:44:09;;;;;;;11.13;7.70;;;16.40;69.40;;;;;;4995339;28;20982;-84
2021/07/20 04:46:37;;;;;;;12.53;8.73;;;16.20;68.80;;;;;;4995753;28;20519;-84
2021/07/20 04:49:06;;;;;;;9.10;8.07;;;16.10;69.60;;;;;;4999197;28;20453;-83
2021/07/20 04:51:35;;;;;;;9.00;8.10;;;16.20;69.40;;;;;;5006151;28;20480;-84
2021/07/20 04:54:04;;;;;;;9.10;8.20;;;16.30;69.60;;;;;;5004811;28;20764;-84
2021/07/20 04:56:32;;;;;;;12.50;8.23;;;16.30;68.80;;;;;;5004949;28;20556;-85
2021/07/20 04:59:03;;;;;;;10.60;8.57;;;16.40;68.80;;;;;;5004136;28;20810;-84
2021/07/20 05:01:33;;;;;;;10.43;8.93;;;16.30;69.30;;;;;;4998056;28;20470;-84
2021/07/20 05:04:03;;;;;;;8.97;8.00;;;16.40;69.20;;;;;;4997946;28;20489;-84
2021/07/20 05:06:35;;;;;;;9.53;8.63;;;16.40;68.80;;;;;;4996490;28;20466;-86
2021/07/20 05:09:02;;;;;;;11.20;8.50;;;16.50;67.70;;;;;;4996713;28;20543;-78
2021/07/20 05:11:31;;;;;;;11.70;9.47;;;16.30;68.00;;;;;;4995378;28;20459;-79
2021/07/20 05:13:58;;;;;;;13.20;8.50;;;16.20;67.80;;;;;;5000331;28;20460;-79
2021/07/20 05:16:27;;;;;;;9.87;8.20;;;16.30;68.70;;;;;;4998876;28;20463;-79
2021/07/20 05:18:54;;;;;;;12.50;8.47;;;16.40;68.70;;;;;;4994786;28;20455;-79
2021/07/20 05:21:22;;;;;;;12.03;7.50;;;16.90;68.50;;;;;;4997103;28;20470;-78
2021/07/20 05:23:51;;;;;;;10.13;7.87;;;17.50;67.30;;;;;;4995192;28;20460;-78
2021/07/20 05:26:19;;;;;;;11.50;7.60;;;18.10;66.30;;;;;;4994342;28;21065;-79
2021/07/20 05:28:46;;;;;;;8.40;7.60;;;18.80;64.90;;;;;;4991657;28;20479;-79
2021/07/20 05:31:15;;;;;;;10.43;6.90;;;19.00;63.40;;;;;;4993856;28;20444;-79
2021/07/20 05:33:44;;;;;;;8.40;6.67;;;19.40;62.80;;;;;;4995900;28;20460;-80
2021/07/20 05:36:11;;;;;;;11.93;8.00;;;19.20;62.10;;;;;;5003851;28;20577;-79
2021/07/20 05:38:42;;;;;;;14.83;7.60;;;19.20;61.30;;;;;;5000418;28;20535;-80
2021/07/20 05:41:12;;;;;;;8.43;7.47;;;19.20;61.20;;;;;;5003179;28;20465;-80
2021/07/20 05:43:39;;;;;;;12.10;7.47;;;19.00;60.60;;;;;;5001707;28;20562;-80
2021/07/20 05:46:06;;;;;;;11.23;7.40;;;19.10;60.50;;;;;;5001805;28;20596;-80
2021/07/20 05:48:33;;;;;;;11.97;7.50;;;18.50;60.90;;;;;;4998992;28;20444;-81
2021/07/20 05:51:04;;;;;;;13.20;8.27;;;18.30;60.80;;;;;;5005981;28;20460;-79
2021/07/20 05:53:35;;;;;;;12.43;7.30;;;18.40;61.30;;;;;;5002269;28;20448;-79
2021/07/20 05:56:04;;;;;;;12.20;8.07;;;18.20;61.40;;;;;;5018320;28;20486;-78
2021/07/20 05:58:32;;;;;;;11.87;7.40;;;18.20;61.70;;;;;;5010565;28;20456;-83
2021/07/20 06:01:02;;;;;;;12.47;7.23;;;18.20;61.30;;;;;;5008502;28;20464;-81
2021/07/20 06:03:32;;;;;;;13.07;8.00;;;18.40;61.00;;;;;;5003088;28;20484;-78
2021/07/20 06:05:59;;;;;;;8.67;6.90;;;18.40;60.50;;;;;;5001489;28;20515;-79
2021/07/20 06:08:29;;;;;;;8.43;6.70;;;18.20;60.60;;;;;;5001138;28;20531;-79
2021/07/20 06:10:58;;;;;;;13.40;7.23;;;18.40;60.90;;;;;;5002452;28;20451;-79
2021/07/20 06:13:27;;;;;;;12.10;7.27;;;18.90;59.80;;;;;;5000792;28;20590;-79
2021/07/20 06:15:54;;;;;;;8.10;7.30;;;19.00;60.10;;;;;;4996426;28;20850;-79
2021/07/20 06:18:21;;;;;;;8.83;7.30;;;19.00;59.70;;;;;;5000835;28;20448;-78
2021/07/20 06:20:54;;;;;;;8.93;8.03;;;19.40;59.50;;;;;;4996148;28;20464;-78
2021/07/20 06:23:22;;;;;;;11.80;7.00;;;19.30;58.90;;;;;;4998707;28;20452;-77
2021/07/20 06:25:52;;;;;;;10.60;7.20;;;19.10;59.40;;;;;;4991931;28;20456;-78
2021/07/20 06:28:24;;;;;;;8.00;7.20;;;19.10;59.40;;;;;;4989340;28;20458;-79
2021/07/20 06:30:51;;;;;;;8.00;6.43;;;19.30;59.50;;;;;;4987490;28;20455;-77
2021/07/20 06:33:19;;;;;;;18.90;7.70;;;19.60;59.20;;;;;;4990394;28;20465;-77
2021/07/20 06:35:48;;;;;;;11.37;6.90;;;19.70;58.90;;;;;;4992321;28;20547;-78
2021/07/20 06:38:16;;;;;;;10.00;7.23;;;19.80;59.30;;;;;;4998608;28;20452;-77
2021/07/20 06:40:45;;;;;;;19.73;8.50;;;19.80;58.90;;;;;;4990518;28;20447;-78
2021/07/20 06:43:15;;;;;;;7.50;6.70;;;19.80;57.40;;;;;;4987618;28;20452;-78
2021/07/20 06:45:45;;;;;;;6.57;5.97;;;20.00;57.70;;;;;;4982211;28;20462;-77
2021/07/20 06:48:13;;;;;;;6.73;6.10;;;19.90;56.50;;;;;;4988956;28;20467;-76
2021/07/20 06:50:41;;;;;;;7.27;6.10;;;19.50;56.80;;;;;;4985967;28;20539;-78
2021/07/20 06:53:08;;;;;;;7.60;6.60;;;19.60;57.40;;;;;;4988476;28;20443;-77
2021/07/20 06:55:38;;;;;;;9.43;8.27;;;19.10;56.80;;;;;;4998716;28;20508;-77
2021/07/20 06:58:07;;;;;;;7.97;5.83;;;19.10;57.40;;;;;;4995024;28;20519;-76
2021/07/20 07:00:35;;;;;;;6.57;5.93;;;19.50;56.80;;;;;;4990957;28;20441;-76
2021/07/20 07:03:04;;;;;;;11.63;6.77;;;19.70;56.20;;;;;;4995981;28;20468;-79
2021/07/20 07:05:32;;;;;;;7.13;6.40;;;19.50;56.10;;;;;;4995713;28;20529;-80
2021/07/20 07:08:01;;;;;;;8.17;5.87;;;19.70;56.40;;;;;;5004366;28;20456;-79
2021/07/20 07:10:28;;;;;;;7.87;6.27;;;19.80;56.90;;;;;;4996614;28;20447;-75
2021/07/20 07:12:56;;;;;;;7.90;6.90;;;19.60;56.70;;;;;;4993680;28;20467;-75
2021/07/20 07:15:24;;;;;;;8.30;6.37;;;19.80;56.90;;;;;;4987934;28;20491;-76
2021/07/20 07:17:53;;;;;;;7.60;6.37;;;19.90;56.80;;;;;;4986502;28;20452;-77
2021/07/20 07:20:26;;;;;;;10.23;6.53;;;20.30;55.90;;;;;;4988781;28;20527;-76
2021/07/20 07:22:54;;;;;;;7.67;5.97;;;20.10;55.70;;;;;;4984665;28;20547;-76
2021/07/20 07:25:22;;;;;;;7.23;6.57;;;19.90;56.10;;;;;;4985254;28;20448;-76
2021/07/20 07:27:50;;;;;;;8.00;5.70;;;19.80;56.20;;;;;;4981315;28;23054;-75
2021/07/20 07:30:18;;;;;;;15.00;7.47;;;20.20;56.30;;;;;;4978062;28;20984;-74
2021/07/20 07:32:45;;;;;;;7.13;5.47;;;20.50;55.80;;;;;;4980797;28;20453;-74
2021/07/20 07:35:14;;;;;;;7.45;6.40;;;20.40;55.00;;;;;;4982668;28;20540;-79
2021/07/20 07:37:42;;;;;;;9.50;6.37;;;20.30;56.10;;;;;;4982254;28;20287;-82
2021/07/20 07:40:12;;;;;;;11.70;7.30;;;20.20;55.50;;;;;;4992040;28;20450;-78
2021/07/20 07:42:40;;;;;;;20.20;7.57;;;19.80;54.90;;;;;;4990595;28;20572;-79
2021/07/20 07:45:10;;;;;;;12.60;6.30;;;19.90;54.70;;;;;;4994153;28;20535;-78
2021/07/20 07:47:38;;;;;;;7.03;6.00;;;20.30;55.30;;;;;;4992267;28;20492;-79
2021/07/20 07:50:06;;;;;;;8.23;5.30;;;20.90;55.00;;;;;;4990095;28;20445;-81
2021/07/20 07:52:36;;;;;;;11.50;5.90;;;21.30;54.60;;;;;;4987719;28;20476;-79
2021/07/20 07:55:05;;;;;;;10.00;6.10;;;21.10;54.70;;;;;;5006531;28;20453;-77
2021/07/20 07:57:32;;;;;;;6.70;6.10;;;21.30;54.70;;;;;;4980410;28;20809;-78
2021/07/20 08:00:01;;;;;;;9.30;6.07;;;21.30;54.50;;;;;;4991774;28;20871;-80
2021/07/20 08:02:34;;;;;;;7.03;6.00;;;20.70;54.40;;;;;;4990276;28;20453;-79
2021/07/20 08:05:02;;;;;;;6.60;6.00;;;20.80;54.50;;;;;;4989060;28;20444;-80
2021/07/20 08:07:29;;;;;;;7.43;5.33;;;20.90;54.20;;;;;;5000123;28;21234;-79
2021/07/20 08:10:03;;;;;;;6.80;5.50;;;21.10;54.20;;;;;;4998943;28;20486;-80
2021/07/20 08:12:32;;;;;;;7.77;7.03;;;21.30;54.20;;;;;;4987357;28;20456;-79
2021/07/20 08:14:59;;;;;;;12.57;6.63;;;21.20;54.30;;;;;;4997430;28;20508;-79
2021/07/20 08:17:30;;;;;;;8.90;6.23;;;21.20;55.10;;;;;;4995986;28;20456;-80
2021/07/20 08:19:58;;;;;;;6.03;5.43;;;21.40;54.80;;;;;;5001911;28;20491;-79
2021/07/20 08:22:29;;;;;;;8.00;5.90;;;21.60;55.10;;;;;;4993164;28;20477;-79
2021/07/20 08:25:06;;;;;;;6.30;5.70;;;21.50;54.30;;;;;;4997781;28;20462;-80
2021/07/20 08:27:40;;;;;;;6.23;5.47;;;21.30;54.60;;;;;;5006760;28;20455;-79
2021/07/20 08:30:08;;;;;;;8.33;5.97;;;20.80;55.10;;;;;;4998518;28;20452;-80
2021/07/20 08:32:43;;;;;;;8.13;6.10;;;20.70;54.00;;;;;;4993893;28;20487;-79
2021/07/20 08:35:15;;;;;;;6.17;4.43;;;20.80;53.80;;;;;;4986776;28;20454;-76
2021/07/20 08:37:45;;;;;;;8.25;6.03;;;20.80;52.90;;;;;;4989232;28;20455;-83
2021/07/20 08:40:23;;;;;;;7.10;5.20;;;20.70;52.70;;;;;;4987729;28;20194;-78
2021/07/20 08:42:59;;;;;;;7.20;5.70;;;21.10;53.10;;;;;;4986965;28;20464;-77
2021/07/20 08:45:32;;;;;;;6.93;5.73;;;21.50;53.20;;;;;;4989937;28;20543;-78
2021/07/20 08:48:11;;;;;;;7.70;5.33;;;21.50;52.70;;;;;;4997584;28;20472;-78
2021/07/20 08:50:45;;;;;;;9.40;6.90;;;21.60;53.00;;;;;;5003405;28;20539;-78
2021/07/20 08:53:20;;;;;;;8.47;6.80;;;21.80;53.70;;;;;;5003493;28;20437;-78
2021/07/20 08:55:53;;;;;;;8.20;6.47;;;21.90;54.10;;;;;;4988870;28;20476;-78
2021/07/20 08:58:27;;;;;;;10.73;5.87;;;22.10;53.70;;;;;;4986805;28;20517;-76
2021/07/20 09:01:00;;;;;;;8.80;6.80;;;22.10;53.30;;;;;;4987964;28;20526;-76
2021/07/20 09:03:40;;;;;;;9.53;6.97;;;21.90;53.10;;;;;;4994257;28;20560;-76
2021/07/20 09:06:11;;;;;;;7.72;6.50;;;22.20;53.20;;;;;;4987313;28;20560;-77
2021/07/20 09:08:42;;;;;;;6.93;6.27;;;22.20;53.00;;;;;;4988147;28;20207;-75
2021/07/20 09:11:20;;;;;;;8.60;6.33;;;22.00;52.90;;;;;;4985225;28;20441;-75
2021/07/20 09:13:53;;;;;;;11.70;6.50;;;21.90;52.90;;;;;;4979929;28;20557;-76
2021/07/20 09:16:29;;;;;;;7.57;6.77;;;21.90;53.40;;;;;;4988365;28;20928;-76
2021/07/20 09:19:01;;;;;;;11.50;5.77;;;22.40;53.40;;;;;;4986258;28;20462;-76
2021/07/20 09:21:31;;;;;;;8.13;6.30;;;22.90;52.70;;;;;;4980489;28;20518;-75
2021/07/20 09:24:07;;;;;;;7.67;6.30;;;22.80;52.20;;;;;;4988726;28;21105;-81
2021/07/20 09:26:42;;;;;;;8.30;5.90;;;22.40;53.20;;;;;;4998027;28;20555;-77
2021/07/20 09:29:13;;;;;;;10.33;6.60;;;22.50;52.90;;;;;;4986041;28;20452;-76
2021/07/20 09:32:22;;;;;;;8.05;6.88;;;22.60;53.60;;;;;;4984602;28;20475;-76
2021/07/20 09:35:09;;;;;;;12.33;7.10;;;22.70;53.40;;;;;;4981743;28;20300;-72
2021/07/20 09:37:41;;;;;;;8.57;6.90;;;22.30;52.90;;;;;;4984460;28;22043;-71
2021/07/20 09:40:18;;;;;;;7.17;6.47;;;22.10;53.30;;;;;;4978018;28;21017;-74
2021/07/20 09:42:57;;;;;;;7.37;6.63;;;21.70;53.20;;;;;;4981134;28;20472;-74
2021/07/20 09:45:31;;;;;;;9.10;6.80;;;21.80;53.10;;;;;;4977048;28;20477;-72
2021/07/20 09:48:04;;;;;;;10.97;6.80;;;21.80;53.60;;;;;;4978611;28;20513;-72
2021/07/20 09:50:38;;;;;;;10.37;6.97;;;22.00;53.40;;;;;;4983289;28;20463;-72
2021/07/20 09:53:31;;;;;;;7.10;6.30;;;22.30;53.30;;;;;;4982933;28;21006;-74
2021/07/20 09:56:16;;;;;;;7.70;6.43;;;22.50;53.10;;;;;;4982068;28;20476;-74
2021/07/20 09:58:58;;;;;;;7.50;6.60;;;22.60;52.80;;;;;;4983771;28;20452;-72
2021/07/20 10:01:31;;;;;;;12.67;7.30;;;22.80;52.40;;;;;;4984934;28;20448;-74
2021/07/20 10:04:03;;;;;;;9.40;7.60;;;22.70;52.50;;;;;;4982022;28;21144;-72
2021/07/20 10:06:35;;;;;;;11.80;7.63;;;22.80;51.60;;;;;;4977423;28;20464;-72
2021/07/20 10:09:06;;;;;;;10.77;6.77;;;22.80;51.60;;;;;;4980488;28;20444;-73
2021/07/20 10:11:40;;;;;;;7.50;6.47;;;22.80;51.80;;;;;;4986581;28;20488;-73
2021/07/20 10:14:30;;;;;;;8.00;6.97;;;22.70;51.80;;;;;;4980441;28;20560;-72
2021/07/20 10:17:02;;;;;;;7.43;6.60;;;22.80;52.10;;;;;;4985080;28;20460;-72
2021/07/20 10:19:37;;;;;;;8.30;7.50;;;23.30;51.60;;;;;;4982250;28;20527;-71
2021/07/20 10:22:09;;;;;;;12.23;7.37;;;23.10;51.40;;;;;;4982271;28;20542;-73
2021/07/20 10:24:42;;;;;;;12.20;7.00;;;23.10;51.80;;;;;;4988914;28;20572;-73
2021/07/20 10:27:15;;;;;;;8.10;7.30;;;23.40;51.00;;;;;;4979719;28;20819;-72
2021/07/20 10:29:54;;;;;;;10.40;7.87;;;23.50;50.90;;;;;;4978323;28;20460;-72
2021/07/20 10:32:27;;;;;;;9.70;8.77;;;23.40;50.10;;;;;;4983609;28;20451;-72
2021/07/20 10:34:58;;;;;;;8.20;7.50;;;23.00;50.60;;;;;;4980436;28;20535;-74
2021/07/20 10:37:29;;;;;;;9.30;8.40;;;23.10;50.50;;;;;;4985310;28;20456;-72
2021/07/20 10:40:00;;;;;;;9.33;8.40;;;23.10;50.10;;;;;;4980362;28;20452;-76
2021/07/20 10:42:35;;;;;;;11.83;9.10;;;23.20;49.90;;;;;;4988024;28;20471;-76
2021/07/20 10:45:05;;;;;;;10.07;9.10;;;23.30;49.50;;;;;;4982465;28;20781;-79
2021/07/20 10:47:37;;;;;;;9.80;8.67;;;23.20;49.80;;;;;;4985266;28;20539;-79
2021/07/20 10:50:08;;;;;;;9.10;8.20;;;23.20;50.40;;;;;;4990452;28;20459;-79
2021/07/20 10:52:55;;;;;;;12.47;8.17;;;23.20;50.80;;;;;;4984738;28;20819;-78
2021/07/20 10:55:26;;;;;;;10.20;8.33;;;23.20;50.60;;;;;;4979203;28;20467;-78
2021/07/20 10:58:04;;;;;;;9.47;8.57;;;23.10;50.60;;;;;;4983062;28;20559;-78
2021/07/20 11:00:45;;;;;;;10.43;7.47;;;23.40;49.40;;;;;;4985927;28;20462;-78
2021/07/20 11:03:21;;;;;;;10.60;6.73;;;23.50;48.90;;;;;;4984056;28;20548;-78
2021/07/20 11:05:51;;;;;;;9.43;7.47;;;23.30;49.20;;;;;;4985919;28;20549;-79
2021/07/20 11:08:19;;;;;;;9.20;8.30;;;23.80;49.30;;;;;;4991079;28;20951;-79
2021/07/20 11:10:49;;;;;;;8.60;7.80;;;24.30;50.40;;;;;;4987263;28;21082;-76
2021/07/20 11:13:22;;;;;;;8.10;7.40;;;24.30;50.00;;;;;;4984237;28;21014;-76
2021/07/20 11:15:54;;;;;;;7.93;6.77;;;24.30;50.30;;;;;;4985220;28;20465;-76
2021/07/20 11:18:25;;;;;;;8.63;7.80;;;24.00;50.00;;;;;;4983115;28;20501;-76
2021/07/20 11:20:56;;;;;;;8.53;7.63;;;23.60;50.00;;;;;;4981241;28;20538;-77
2021/07/20 11:23:25;;;;;;;8.40;7.30;;;23.50;50.30;;;;;;4985034;28;20487;-77
2021/07/20 11:25:52;;;;;;;8.97;8.07;;;23.60;50.10;;;;;;4989251;28;20448;-77
2021/07/20 11:28:20;;;;;;;8.47;7.57;;;23.70;50.70;;;;;;4982970;28;20456;-75
2021/07/20 11:30:52;;;;;;;9.40;7.50;;;23.40;50.00;;;;;;4983861;28;20884;-76
2021/07/20 11:33:24;;;;;;;11.10;7.63;;;23.40;50.30;;;;;;4982651;28;20818;-77
2021/07/20 11:35:55;;;;;;;8.83;7.87;;;23.60;50.60;;;;;;4976864;28;20460;-76
2021/07/20 11:38:25;;;;;;;7.90;7.10;;;23.20;50.80;;;;;;4984543;28;20450;-76
2021/07/20 11:41:00;;;;;;;8.37;7.57;;;23.30;51.00;;;;;;4987646;28;21062;-75
2021/07/20 11:43:34;;;;;;;8.20;7.40;;;23.20;50.70;;;;;;4985527;28;20464;-77
2021/07/20 11:46:06;;;;;;;8.30;7.50;;;23.30;50.30;;;;;;4980204;28;20452;-76
2021/07/20 11:48:42;;;;;;;7.40;6.80;;;23.40;50.30;;;;;;4977034;28;20445;-78
2021/07/20 11:51:14;;;;;;;15.10;7.90;;;23.60;49.90;;;;;;4985201;28;20460;-77
2021/07/20 11:53:50;;;;;;;7.80;7.10;;;23.70;49.30;;;;;;4985207;28;20452;-77
2021/07/20 11:56:22;;;;;;;8.77;6.30;;;23.90;49.70;;;;;;4982627;28;20576;-76
2021/07/20 11:59:39;;;;;;;6.93;6.20;;;24.30;48.10;;;;;;4982492;28;20464;-80
2021/07/20 12:02:54;;;;;;;7.97;7.27;;;24.80;47.70;;;;;;4948446;28;20539;-79
2021/07/20 12:05:45;;;;;;;7.33;6.63;;;25.10;47.80;;;;;;4984205;28;20499;-80
2021/07/20 12:08:24;;;;;;;9.00;7.57;;;25.80;47.70;;;;;;4986952;28;21321;-79
2021/07/20 12:10:56;;;;;;;9.57;8.67;;;25.40;48.90;;;;;;4986806;28;20842;-79
2021/07/20 12:13:23;;;;;;;9.10;6.77;;;24.90;49.30;;;;;;4994952;28;20476;-78
2021/07/20 12:15:52;;;;;;;8.30;7.47;;;24.70;48.60;;;;;;4993014;28;20466;-79
2021/07/20 12:18:20;;;;;;;8.33;7.33;;;24.10;49.10;;;;;;4986770;28;20499;-79
2021/07/20 12:20:49;;;;;;;10.80;7.90;;;24.00;49.20;;;;;;4990844;28;20446;-79
2021/07/20 12:23:17;;;;;;;7.63;6.83;;;23.90;48.90;;;;;;4982291;28;20768;-78
2021/07/20 12:25:44;;;;;;;8.40;7.50;;;23.70;49.10;;;;;;5002707;28;20496;-78
2021/07/20 12:28:12;;;;;;;9.70;6.27;;;23.70;49.20;;;;;;4987509;28;20606;-78
2021/07/20 12:30:39;;;;;;;8.03;7.23;;;23.80;48.90;;;;;;4985721;28;20466;-79
2021/07/20 12:33:14;;;;;;;8.27;7.10;;;24.00;49.20;;;;;;4990965;28;20457;-79
2021/07/20 12:35:49;;;;;;;9.80;7.90;;;23.80;48.70;;;;;;4994914;28;20456;-78
2021/07/20 12:38:23;;;;;;;8.60;7.70;;;23.90;48.10;;;;;;5004438;28;20458;-79
2021/07/20 12:40:50;;;;;;;8.97;7.53;;;24.00;47.70;;;;;;5004882;28;20464;-79
2021/07/20 12:43:18;;;;;;;8.80;7.00;;;23.90;47.20;;;;;;4988335;28;20872;-78
2021/07/20 12:45:46;;;;;;;7.87;7.13;;;23.90;47.80;;;;;;4987050;28;20456;-78
2021/07/20 12:48:24;;;;;;;7.13;6.43;;;24.10;48.10;;;;;;4985627;28;20516;-77
2021/07/20 12:50:51;;;;;;;7.07;6.47;;;24.40;48.10;;;;;;4995337;28;20539;-78
2021/07/20 12:53:21;;;;;;;9.43;6.33;;;24.60;47.10;;;;;;4990697;28;20635;-78
2021/07/20 12:55:48;;;;;;;8.67;6.80;;;24.70;47.50;;;;;;4986193;28;20479;-78
2021/07/20 12:58:20;;;;;;;7.27;6.67;;;25.00;48.10;;;;;;4992145;28;20479;-81
2021/07/20 13:00:47;;;;;;;9.40;7.50;;;24.90;48.40;;;;;;4995396;28;20458;-81
2021/07/20 13:03:15;;;;;;;12.67;7.97;;;24.60;47.90;;;;;;5003835;28;21024;-79
2021/07/20 13:05:43;;;;;;;7.20;6.57;;;24.60;47.70;;;;;;4986172;28;20532;-77